sensor_id;sensor_type;location;lat;lon;timestamp;P1;durP1;ratioP1;P2;durP2;ratioP2
15230;SDS011;32569;51.762;8.564;2024-01-16T00:00:22;2.30;;;2.10;;
15230;SDS011;32569;51.762;8.564;2024-01-16T00:02:49;2.10;;;2.00;;
15230;SDS011;32569;51.762;8.564;2024-01-16T00:05:15;2.30;;;2.20;;
15230;SDS011;32569;51.762;8.564;2024-01-16T00:07:42;1.93;;;1.83;;
15230;SDS011;32569;51.762;8.564;2024-01-16T00:10:09;2.27;;;2.07;;
15230;SDS011;32569;51.762;8.564;2024-01-16T00:12:35;2.37;;;2.17;;
15230;SDS011;32569;51.762;8.564;2024-01-16T00:15:02;2.27;;;2.10;;
15230;SDS011;32569;51.762;8.564;2024-01-16T00:17:32;2.40;;;2.20;;
15230;SDS011;32569;51.762;8.564;2024-01-16T00:19:58;2.30;;;2.10;;
15230;SDS011;32569;51.762;8.564;2024-01-16T00:22:26;2.50;;;2.30;;
15230;SDS011;32569;51.762;8.564;2024-01-16T00:24:52;2.50;;;2.30;;
15230;SDS011;32569;51.762;8.564;2024-01-16T00:27:19;2.13;;;2.00;;
15230;SDS011;32569;51.762;8.564;2024-01-16T00:29:46;2.80;;;2.70;;
15230;SDS011;32569;51.762;8.564;2024-01-16T00:32:12;2.70;;;2.50;;
15230;SDS011;32569;51.762;8.564;2024-01-16T00:34:42;2.50;;;2.30;;
15230;SDS011;32569;51.762;8.564;2024-01-16T00:37:09;3.07;;;2.50;;
15230;SDS011;32569;51.762;8.564;2024-01-16T00:39:36;2.77;;;2.57;;
15230;SDS011;32569;51.762;8.564;2024-01-16T00:42:02;2.40;;;2.30;;
15230;SDS011;32569;51.762;8.564;2024-01-16T00:44:30;2.70;;;2.50;;
15230;SDS011;32569;51.762;8.564;2024-01-16T00:46:58;2.83;;;2.63;;
15230;SDS011;32569;51.762;8.564;2024-01-16T00:49:26;3.80;;;2.63;;
15230;SDS011;32569;51.762;8.564;2024-01-16T00:51:54;3.03;;;2.80;;
15230;SDS011;32569;51.762;8.564;2024-01-16T00:54:21;2.80;;;2.50;;
15230;SDS011;32569;51.762;8.564;2024-01-16T00:56:48;2.70;;;2.50;;
15230;SDS011;32569;51.762;8.564;2024-01-16T00:59:15;2.97;;;2.67;;
15230;SDS011;32569;51.762;8.564;2024-01-16T01:01:41;3.10;;;2.80;;
15230;SDS011;32569;51.762;8.564;2024-01-16T01:04:08;3.50;;;2.60;;
15230;SDS011;32569;51.762;8.564;2024-01-16T01:06:35;2.53;;;2.33;;
15230;SDS011;32569;51.762;8.564;2024-01-16T01:09:03;3.00;;;2.70;;
15230;SDS011;32569;51.762;8.564;2024-01-16T01:11:29;2.70;;;2.50;;
15230;SDS011;32569;51.762;8.564;2024-01-16T01:13:56;3.77;;;2.77;;
15230;SDS011;32569;51.762;8.564;2024-01-16T01:16:23;2.80;;;2.60;;
15230;SDS011;32569;51.762;8.564;2024-01-16T01:18:49;3.47;;;2.53;;
15230;SDS011;32569;51.762;8.564;2024-01-16T01:21:16;2.80;;;2.57;;
15230;SDS011;32569;51.762;8.564;2024-01-16T01:23:43;3.17;;;2.93;;
15230;SDS011;32569;51.762;8.564;2024-01-16T01:26:11;4.17;;;2.90;;
15230;SDS011;32569;51.762;8.564;2024-01-16T01:28:38;3.10;;;2.80;;
15230;SDS011;32569;51.762;8.564;2024-01-16T01:31:05;2.70;;;2.50;;
15230;SDS011;32569;51.762;8.564;2024-01-16T01:33:34;2.90;;;2.70;;
15230;SDS011;32569;51.762;8.564;2024-01-16T01:36:00;3.43;;;3.03;;
15230;SDS011;32569;51.762;8.564;2024-01-16T01:38:27;3.03;;;2.83;;
15230;SDS011;32569;51.762;8.564;2024-01-16T01:40:54;4.27;;;3.00;;
15230;SDS011;32569;51.762;8.564;2024-01-16T01:43:22;3.70;;;2.77;;
15230;SDS011;32569;51.762;8.564;2024-01-16T01:45:55;3.03;;;2.70;;
15230;SDS011;32569;51.762;8.564;2024-01-16T01:48:33;2.47;;;2.20;;
15230;SDS011;32569;51.762;8.564;2024-01-16T01:51:00;2.80;;;2.50;;
15230;SDS011;32569;51.762;8.564;2024-01-16T01:53:28;2.80;;;2.60;;
15230;SDS011;32569;51.762;8.564;2024-01-16T01:55:56;4.23;;;3.03;;
15230;SDS011;32569;51.762;8.564;2024-01-16T01:58:24;3.07;;;2.70;;
15230;SDS011;32569;51.762;8.564;2024-01-16T02:00:51;3.90;;;2.60;;
15230;SDS011;32569;51.762;8.564;2024-01-16T02:03:18;2.60;;;2.30;;
15230;SDS011;32569;51.762;8.564;2024-01-16T02:05:46;2.90;;;2.70;;
15230;SDS011;32569;51.762;8.564;2024-01-16T02:08:12;2.63;;;2.43;;
15230;SDS011;32569;51.762;8.564;2024-01-16T02:10:39;3.20;;;2.90;;
15230;SDS011;32569;51.762;8.564;2024-01-16T02:13:11;2.60;;;2.40;;
15230;SDS011;32569;51.762;8.564;2024-01-16T02:15:39;3.07;;;2.87;;
15230;SDS011;32569;51.762;8.564;2024-01-16T02:18:06;4.10;;;3.77;;
15230;SDS011;32569;51.762;8.564;2024-01-16T02:20:33;6.07;;;3.20;;
15230;SDS011;32569;51.762;8.564;2024-01-16T02:22:59;3.40;;;3.20;;
15230;SDS011;32569;51.762;8.564;2024-01-16T02:25:30;3.73;;;3.30;;
15230;SDS011;32569;51.762;8.564;2024-01-16T02:27:57;3.53;;;3.23;;
15230;SDS011;32569;51.762;8.564;2024-01-16T02:30:25;3.60;;;3.30;;
15230;SDS011;32569;51.762;8.564;2024-01-16T02:32:52;3.80;;;3.50;;
15230;SDS011;32569;51.762;8.564;2024-01-16T02:35:18;5.07;;;4.10;;
15230;SDS011;32569;51.762;8.564;2024-01-16T02:37:45;4.30;;;3.80;;
15230;SDS011;32569;51.762;8.564;2024-01-16T02:40:12;3.73;;;3.53;;
15230;SDS011;32569;51.762;8.564;2024-01-16T02:42:40;3.97;;;3.77;;
15230;SDS011;32569;51.762;8.564;2024-01-16T02:45:07;4.30;;;3.90;;
15230;SDS011;32569;51.762;8.564;2024-01-16T02:47:34;4.37;;;4.00;;
15230;SDS011;32569;51.762;8.564;2024-01-16T02:50:00;4.57;;;4.23;;
15230;SDS011;32569;51.762;8.564;2024-01-16T02:52:28;4.50;;;4.10;;
15230;SDS011;32569;51.762;8.564;2024-01-16T02:54:55;4.10;;;3.80;;
15230;SDS011;32569;51.762;8.564;2024-01-16T02:57:21;4.60;;;4.20;;
15230;SDS011;32569;51.762;8.564;2024-01-16T02:59:49;4.47;;;4.07;;
15230;SDS011;32569;51.762;8.564;2024-01-16T03:02:16;4.80;;;4.40;;
15230;SDS011;32569;51.762;8.564;2024-01-16T03:04:42;4.70;;;4.40;;
15230;SDS011;32569;51.762;8.564;2024-01-16T03:07:09;4.40;;;4.10;;
15230;SDS011;32569;51.762;8.564;2024-01-16T03:09:36;4.80;;;4.13;;
15230;SDS011;32569;51.762;8.564;2024-01-16T03:12:02;5.33;;;4.83;;
15230;SDS011;32569;51.762;8.564;2024-01-16T03:14:29;5.00;;;4.57;;
15230;SDS011;32569;51.762;8.564;2024-01-16T03:17:00;4.83;;;4.40;;
15230;SDS011;32569;51.762;8.564;2024-01-16T03:19:27;4.90;;;4.50;;
15230;SDS011;32569;51.762;8.564;2024-01-16T03:21:53;5.10;;;4.60;;
15230;SDS011;32569;51.762;8.564;2024-01-16T03:24:20;4.63;;;4.27;;
15230;SDS011;32569;51.762;8.564;2024-01-16T03:26:47;4.50;;;4.20;;
15230;SDS011;32569;51.762;8.564;2024-01-16T03:29:14;5.40;;;4.90;;
15230;SDS011;32569;51.762;8.564;2024-01-16T03:31:41;4.80;;;4.40;;
15230;SDS011;32569;51.762;8.564;2024-01-16T03:34:09;6.00;;;5.47;;
15230;SDS011;32569;51.762;8.564;2024-01-16T03:36:35;4.60;;;4.30;;
15230;SDS011;32569;51.762;8.564;2024-01-16T03:39:02;4.40;;;4.10;;
15230;SDS011;32569;51.762;8.564;2024-01-16T03:41:30;4.83;;;4.43;;
15230;SDS011;32569;51.762;8.564;2024-01-16T03:43:57;5.13;;;4.73;;
15230;SDS011;32569;51.762;8.564;2024-01-16T03:46:23;5.20;;;4.80;;
15230;SDS011;32569;51.762;8.564;2024-01-16T03:48:50;4.90;;;4.50;;
15230;SDS011;32569;51.762;8.564;2024-01-16T03:51:18;5.57;;;4.70;;
15230;SDS011;32569;51.762;8.564;2024-01-16T03:53:45;4.97;;;4.53;;
15230;SDS011;32569;51.762;8.564;2024-01-16T03:56:11;4.57;;;4.17;;
15230;SDS011;32569;51.762;8.564;2024-01-16T03:58:39;5.80;;;5.20;;
15230;SDS011;32569;51.762;8.564;2024-01-16T04:01:06;5.30;;;4.90;;
15230;SDS011;32569;51.762;8.564;2024-01-16T04:03:33;5.97;;;5.57;;
15230;SDS011;32569;51.762;8.564;2024-01-16T04:06:00;5.73;;;5.23;;
15230;SDS011;32569;51.762;8.564;2024-01-16T04:08:28;6.23;;;5.73;;
15230;SDS011;32569;51.762;8.564;2024-01-16T04:10:54;6.73;;;6.13;;
15230;SDS011;32569;51.762;8.564;2024-01-16T04:13:21;5.57;;;5.17;;
15230;SDS011;32569;51.762;8.564;2024-01-16T04:15:47;6.50;;;5.90;;
15230;SDS011;32569;51.762;8.564;2024-01-16T04:18:13;6.10;;;5.70;;
15230;SDS011;32569;51.762;8.564;2024-01-16T04:20:40;7.23;;;6.57;;
15230;SDS011;32569;51.762;8.564;2024-01-16T04:23:06;6.80;;;6.20;;
15230;SDS011;32569;51.762;8.564;2024-01-16T04:25:34;6.43;;;5.83;;
15230;SDS011;32569;51.762;8.564;2024-01-16T04:28:01;6.73;;;6.10;;
15230;SDS011;32569;51.762;8.564;2024-01-16T04:30:28;6.10;;;5.70;;
15230;SDS011;32569;51.762;8.564;2024-01-16T04:32:55;6.77;;;5.87;;
15230;SDS011;32569;51.762;8.564;2024-01-16T04:35:22;6.43;;;5.93;;
15230;SDS011;32569;51.762;8.564;2024-01-16T04:37:48;6.00;;;5.47;;
15230;SDS011;32569;51.762;8.564;2024-01-16T04:40:15;5.67;;;5.23;;
15230;SDS011;32569;51.762;8.564;2024-01-16T04:42:43;4.80;;;4.40;;
15230;SDS011;32569;51.762;8.564;2024-01-16T04:45:10;5.23;;;4.83;;
15230;SDS011;32569;51.762;8.564;2024-01-16T04:47:36;5.57;;;5.17;;
15230;SDS011;32569;51.762;8.564;2024-01-16T04:50:03;6.30;;;5.57;;
15230;SDS011;32569;51.762;8.564;2024-01-16T04:52:30;6.57;;;6.03;;
15230;SDS011;32569;51.762;8.564;2024-01-16T04:54:57;5.37;;;4.90;;
15230;SDS011;32569;51.762;8.564;2024-01-16T04:57:23;5.00;;;4.70;;
15230;SDS011;32569;51.762;8.564;2024-01-16T04:59:51;4.73;;;4.33;;
15230;SDS011;32569;51.762;8.564;2024-01-16T05:02:18;4.87;;;4.47;;
15230;SDS011;32569;51.762;8.564;2024-01-16T05:04:45;4.93;;;4.53;;
15230;SDS011;32569;51.762;8.564;2024-01-16T05:07:14;5.53;;;5.03;;
15230;SDS011;32569;51.762;8.564;2024-01-16T05:09:41;5.10;;;4.70;;
15230;SDS011;32569;51.762;8.564;2024-01-16T05:12:07;5.30;;;4.80;;
15230;SDS011;32569;51.762;8.564;2024-01-16T05:14:34;5.27;;;4.40;;
15230;SDS011;32569;51.762;8.564;2024-01-16T05:17:02;5.07;;;4.67;;
15230;SDS011;32569;51.762;8.564;2024-01-16T05:19:29;4.90;;;4.50;;
15230;SDS011;32569;51.762;8.564;2024-01-16T05:21:55;5.03;;;4.63;;
15230;SDS011;32569;51.762;8.564;2024-01-16T05:24:22;5.10;;;4.70;;
15230;SDS011;32569;51.762;8.564;2024-01-16T05:26:49;5.13;;;4.40;;
15230;SDS011;32569;51.762;8.564;2024-01-16T05:29:16;4.50;;;4.17;;
15230;SDS011;32569;51.762;8.564;2024-01-16T05:31:44;5.37;;;4.87;;
15230;SDS011;32569;51.762;8.564;2024-01-16T05:34:11;7.60;;;4.90;;
15230;SDS011;32569;51.762;8.564;2024-01-16T05:36:38;5.10;;;4.70;;
15230;SDS011;32569;51.762;8.564;2024-01-16T05:39:05;5.47;;;4.93;;
15230;SDS011;32569;51.762;8.564;2024-01-16T05:41:33;5.23;;;4.80;;
15230;SDS011;32569;51.762;8.564;2024-01-16T05:44:00;5.60;;;5.10;;
15230;SDS011;32569;51.762;8.564;2024-01-16T05:46:28;6.75;;;6.25;;
15230;SDS011;32569;51.762;8.564;2024-01-16T05:48:56;6.20;;;5.70;;
15230;SDS011;32569;51.762;8.564;2024-01-16T05:51:24;6.47;;;5.67;;
15230;SDS011;32569;51.762;8.564;2024-01-16T05:53:51;6.33;;;5.83;;
15230;SDS011;32569;51.762;8.564;2024-01-16T05:56:17;6.70;;;6.10;;
15230;SDS011;32569;51.762;8.564;2024-01-16T05:58:44;8.07;;;7.37;;
15230;SDS011;32569;51.762;8.564;2024-01-16T06:01:10;7.50;;;6.90;;
15230;SDS011;32569;51.762;8.564;2024-01-16T06:03:38;7.60;;;6.60;;
15230;SDS011;32569;51.762;8.564;2024-01-16T06:06:05;7.90;;;6.73;;
15230;SDS011;32569;51.762;8.564;2024-01-16T06:08:33;7.70;;;6.93;;
15230;SDS011;32569;51.762;8.564;2024-01-16T06:11:00;7.53;;;6.93;;
15230;SDS011;32569;51.762;8.564;2024-01-16T06:13:26;6.80;;;6.30;;
15230;SDS011;32569;51.762;8.564;2024-01-16T06:15:55;6.80;;;6.30;;
15230;SDS011;32569;51.762;8.564;2024-01-16T06:18:22;9.30;;;6.90;;
15230;SDS011;32569;51.762;8.564;2024-01-16T06:20:48;7.63;;;7.03;;
15230;SDS011;32569;51.762;8.564;2024-01-16T06:23:15;8.20;;;7.50;;
15230;SDS011;32569;51.762;8.564;2024-01-16T06:25:43;9.40;;;8.60;;
15230;SDS011;32569;51.762;8.564;2024-01-16T06:28:09;8.27;;;7.57;;
15230;SDS011;32569;51.762;8.564;2024-01-16T06:30:36;7.67;;;7.03;;
15230;SDS011;32569;51.762;8.564;2024-01-16T06:33:03;7.27;;;6.50;;
15230;SDS011;32569;51.762;8.564;2024-01-16T06:35:30;6.97;;;6.40;;
15230;SDS011;32569;51.762;8.564;2024-01-16T06:37:57;7.60;;;6.93;;
15230;SDS011;32569;51.762;8.564;2024-01-16T06:40:24;8.17;;;7.53;;
15230;SDS011;32569;51.762;8.564;2024-01-16T06:42:52;6.83;;;6.27;;
15230;SDS011;32569;51.762;8.564;2024-01-16T06:45:19;7.30;;;6.60;;
15230;SDS011;32569;51.762;8.564;2024-01-16T06:47:45;7.43;;;6.83;;
15230;SDS011;32569;51.762;8.564;2024-01-16T06:50:14;7.47;;;6.77;;
15230;SDS011;32569;51.762;8.564;2024-01-16T06:52:42;7.43;;;6.83;;
15230;SDS011;32569;51.762;8.564;2024-01-16T06:55:08;8.23;;;7.53;;
15230;SDS011;32569;51.762;8.564;2024-01-16T06:57:35;8.43;;;7.33;;
15230;SDS011;32569;51.762;8.564;2024-01-16T07:00:04;6.90;;;6.30;;
15230;SDS011;32569;51.762;8.564;2024-01-16T07:02:32;7.50;;;6.90;;
15230;SDS011;32569;51.762;8.564;2024-01-16T07:04:58;6.97;;;6.37;;
15230;SDS011;32569;51.762;8.564;2024-01-16T07:07:25;7.97;;;7.20;;
15230;SDS011;32569;51.762;8.564;2024-01-16T07:09:52;7.57;;;6.77;;
15230;SDS011;32569;51.762;8.564;2024-01-16T07:12:18;7.60;;;6.90;;
15230;SDS011;32569;51.762;8.564;2024-01-16T07:14:45;7.33;;;6.73;;
15230;SDS011;32569;51.762;8.564;2024-01-16T07:17:13;6.80;;;6.20;;
15230;SDS011;32569;51.762;8.564;2024-01-16T07:19:40;7.00;;;6.40;;
15230;SDS011;32569;51.762;8.564;2024-01-16T07:22:06;7.43;;;6.83;;
15230;SDS011;32569;51.762;8.564;2024-01-16T07:24:35;8.23;;;7.53;;
15230;SDS011;32569;51.762;8.564;2024-01-16T07:27:02;7.90;;;7.20;;
15230;SDS011;32569;51.762;8.564;2024-01-16T07:29:29;6.77;;;6.17;;
15230;SDS011;32569;51.762;8.564;2024-01-16T07:31:55;7.93;;;6.73;;
15230;SDS011;32569;51.762;8.564;2024-01-16T07:34:23;7.93;;;7.20;;
15230;SDS011;32569;51.762;8.564;2024-01-16T07:36:50;7.30;;;6.67;;
15230;SDS011;32569;51.762;8.564;2024-01-16T07:39:17;7.33;;;6.60;;
15230;SDS011;32569;51.762;8.564;2024-01-16T07:41:44;11.23;;;7.30;;
15230;SDS011;32569;51.762;8.564;2024-01-16T07:44:10;6.47;;;5.83;;
15230;SDS011;32569;51.762;8.564;2024-01-16T07:46:37;7.70;;;7.00;;
15230;SDS011;32569;51.762;8.564;2024-01-16T07:49:03;8.00;;;7.20;;
15230;SDS011;32569;51.762;8.564;2024-01-16T07:51:30;8.10;;;7.40;;
15230;SDS011;32569;51.762;8.564;2024-01-16T07:54:04;9.33;;;8.63;;
15230;SDS011;32569;51.762;8.564;2024-01-16T07:56:31;8.03;;;7.27;;
15230;SDS011;32569;51.762;8.564;2024-01-16T07:58:59;13.07;;;6.80;;
15230;SDS011;32569;51.762;8.564;2024-01-16T08:01:26;8.07;;;7.03;;
15230;SDS011;32569;51.762;8.564;2024-01-16T08:03:53;8.47;;;7.60;;
15230;SDS011;32569;51.762;8.564;2024-01-16T08:06:20;8.10;;;7.50;;
15230;SDS011;32569;51.762;8.564;2024-01-16T08:08:48;7.37;;;6.63;;
15230;SDS011;32569;51.762;8.564;2024-01-16T08:11:15;7.93;;;7.33;;
15230;SDS011;32569;51.762;8.564;2024-01-16T08:13:42;7.70;;;7.10;;
15230;SDS011;32569;51.762;8.564;2024-01-16T08:16:09;7.03;;;6.50;;
15230;SDS011;32569;51.762;8.564;2024-01-16T08:18:35;7.37;;;6.77;;
15230;SDS011;32569;51.762;8.564;2024-01-16T08:21:03;6.90;;;6.40;;
15230;SDS011;32569;51.762;8.564;2024-01-16T08:23:29;7.80;;;7.17;;
15230;SDS011;32569;51.762;8.564;2024-01-16T08:25:57;7.00;;;6.40;;
15230;SDS011;32569;51.762;8.564;2024-01-16T08:28:24;6.97;;;6.30;;
15230;SDS011;32569;51.762;8.564;2024-01-16T08:30:51;7.00;;;6.40;;
15230;SDS011;32569;51.762;8.564;2024-01-16T08:33:17;6.83;;;6.23;;
15230;SDS011;32569;51.762;8.564;2024-01-16T08:35:47;7.10;;;6.50;;
15230;SDS011;32569;51.762;8.564;2024-01-16T08:38:14;6.60;;;5.80;;
15230;SDS011;32569;51.762;8.564;2024-01-16T08:40:41;7.00;;;6.30;;
15230;SDS011;32569;51.762;8.564;2024-01-16T08:43:09;6.30;;;5.80;;
15230;SDS011;32569;51.762;8.564;2024-01-16T08:45:35;6.00;;;5.57;;
15230;SDS011;32569;51.762;8.564;2024-01-16T08:48:02;6.00;;;5.60;;
15230;SDS011;32569;51.762;8.564;2024-01-16T08:50:29;5.80;;;5.23;;
15230;SDS011;32569;51.762;8.564;2024-01-16T08:52:56;9.23;;;6.00;;
15230;SDS011;32569;51.762;8.564;2024-01-16T08:55:23;6.40;;;5.90;;
15230;SDS011;32569;51.762;8.564;2024-01-16T08:57:52;6.03;;;5.53;;
15230;SDS011;32569;51.762;8.564;2024-01-16T09:00:20;5.43;;;5.03;;
15230;SDS011;32569;51.762;8.564;2024-01-16T09:02:47;5.77;;;5.27;;
15230;SDS011;32569;51.762;8.564;2024-01-16T09:05:14;5.33;;;4.83;;
15230;SDS011;32569;51.762;8.564;2024-01-16T09:07:41;5.67;;;5.27;;
15230;SDS011;32569;51.762;8.564;2024-01-16T09:10:08;6.00;;;5.50;;
15230;SDS011;32569;51.762;8.564;2024-01-16T09:12:35;6.87;;;6.13;;
15230;SDS011;32569;51.762;8.564;2024-01-16T09:15:02;6.47;;;5.87;;
15230;SDS011;32569;51.762;8.564;2024-01-16T09:17:31;6.13;;;5.63;;
15230;SDS011;32569;51.762;8.564;2024-01-16T09:19:57;6.43;;;5.93;;
15230;SDS011;32569;51.762;8.564;2024-01-16T09:22:24;6.27;;;5.67;;
15230;SDS011;32569;51.762;8.564;2024-01-16T09:24:51;6.07;;;5.57;;
15230;SDS011;32569;51.762;8.564;2024-01-16T09:27:17;6.53;;;5.93;;
15230;SDS011;32569;51.762;8.564;2024-01-16T09:29:44;6.50;;;6.00;;
15230;SDS011;32569;51.762;8.564;2024-01-16T09:32:11;6.57;;;5.97;;
15230;SDS011;32569;51.762;8.564;2024-01-16T09:34:39;7.17;;;6.60;;
15230;SDS011;32569;51.762;8.564;2024-01-16T09:37:06;6.60;;;6.00;;
15230;SDS011;32569;51.762;8.564;2024-01-16T09:39:32;5.87;;;5.47;;
15230;SDS011;32569;51.762;8.564;2024-01-16T09:42:03;6.30;;;5.70;;
15230;SDS011;32569;51.762;8.564;2024-01-16T09:44:30;6.73;;;6.13;;
15230;SDS011;32569;51.762;8.564;2024-01-16T09:46:56;9.23;;;6.27;;
15230;SDS011;32569;51.762;8.564;2024-01-16T09:49:25;6.83;;;6.17;;
15230;SDS011;32569;51.762;8.564;2024-01-16T09:51:53;6.60;;;6.10;;
15230;SDS011;32569;51.762;8.564;2024-01-16T09:54:19;6.63;;;5.63;;
15230;SDS011;32569;51.762;8.564;2024-01-16T09:56:47;6.20;;;5.63;;
15230;SDS011;32569;51.762;8.564;2024-01-16T09:59:16;7.20;;;6.50;;
15230;SDS011;32569;51.762;8.564;2024-01-16T10:01:44;6.63;;;6.03;;
15230;SDS011;32569;51.762;8.564;2024-01-16T10:04:11;6.20;;;5.77;;
15230;SDS011;32569;51.762;8.564;2024-01-16T10:06:38;6.00;;;5.50;;
15230;SDS011;32569;51.762;8.564;2024-01-16T10:09:07;7.33;;;4.90;;
15230;SDS011;32569;51.762;8.564;2024-01-16T10:11:37;5.47;;;4.97;;
15230;SDS011;32569;51.762;8.564;2024-01-16T10:14:04;5.23;;;4.77;;
15230;SDS011;32569;51.762;8.564;2024-01-16T10:19:24;5.10;;;4.70;;
15230;SDS011;32569;51.762;8.564;2024-01-16T10:21:52;5.23;;;4.73;;
15230;SDS011;32569;51.762;8.564;2024-01-16T10:24:28;5.30;;;4.80;;
15230;SDS011;32569;51.762;8.564;2024-01-16T10:26:57;4.97;;;4.50;;
15230;SDS011;32569;51.762;8.564;2024-01-16T10:29:25;4.67;;;4.37;;
15230;SDS011;32569;51.762;8.564;2024-01-16T10:31:51;4.40;;;4.10;;
15230;SDS011;32569;51.762;8.564;2024-01-16T10:34:19;4.43;;;4.03;;
15230;SDS011;32569;51.762;8.564;2024-01-16T10:36:46;4.87;;;4.10;;
15230;SDS011;32569;51.762;8.564;2024-01-16T10:39:15;4.50;;;4.10;;
15230;SDS011;32569;51.762;8.564;2024-01-16T10:41:43;4.23;;;3.90;;
15230;SDS011;32569;51.762;8.564;2024-01-16T10:44:20;3.50;;;3.10;;
15230;SDS011;32569;51.762;8.564;2024-01-16T10:46:47;4.00;;;3.60;;
15230;SDS011;32569;51.762;8.564;2024-01-16T10:49:13;4.97;;;4.57;;
15230;SDS011;32569;51.762;8.564;2024-01-16T10:51:41;4.20;;;3.77;;
15230;SDS011;32569;51.762;8.564;2024-01-16T10:54:11;4.03;;;3.67;;
15230;SDS011;32569;51.762;8.564;2024-01-16T10:56:39;4.40;;;4.00;;
15230;SDS011;32569;51.762;8.564;2024-01-16T10:59:12;3.73;;;3.43;;
15230;SDS011;32569;51.762;8.564;2024-01-16T11:01:45;4.17;;;3.60;;
15230;SDS011;32569;51.762;8.564;2024-01-16T11:04:17;3.10;;;2.80;;
15230;SDS011;32569;51.762;8.564;2024-01-16T11:06:44;3.77;;;2.90;;
15230;SDS011;32569;51.762;8.564;2024-01-16T11:09:12;3.10;;;2.80;;
15230;SDS011;32569;51.762;8.564;2024-01-16T11:11:40;3.20;;;2.90;;
15230;SDS011;32569;51.762;8.564;2024-01-16T11:14:09;3.13;;;2.83;;
15230;SDS011;32569;51.762;8.564;2024-01-16T11:16:37;3.03;;;2.83;;
15230;SDS011;32569;51.762;8.564;2024-01-16T11:19:07;3.03;;;2.50;;
15230;SDS011;32569;51.762;8.564;2024-01-16T11:21:35;3.00;;;2.80;;
15230;SDS011;32569;51.762;8.564;2024-01-16T11:24:02;3.53;;;2.83;;
15230;SDS011;32569;51.762;8.564;2024-01-16T11:26:31;4.43;;;2.80;;
15230;SDS011;32569;51.762;8.564;2024-01-16T11:28:59;3.23;;;2.93;;
15230;SDS011;32569;51.762;8.564;2024-01-16T11:31:31;3.13;;;2.80;;
15230;SDS011;32569;51.762;8.564;2024-01-16T11:33:59;4.50;;;3.17;;
15230;SDS011;32569;51.762;8.564;2024-01-16T11:36:42;2.60;;;2.40;;
15230;SDS011;32569;51.762;8.564;2024-01-16T11:39:16;3.80;;;2.53;;
15230;SDS011;32569;51.762;8.564;2024-01-16T11:41:56;2.63;;;2.43;;
15230;SDS011;32569;51.762;8.564;2024-01-16T11:44:35;2.27;;;2.17;;
15230;SDS011;32569;51.762;8.564;2024-01-16T11:47:04;3.13;;;2.10;;
15230;SDS011;32569;51.762;8.564;2024-01-16T11:49:31;3.27;;;2.20;;
15230;SDS011;32569;51.762;8.564;2024-01-16T11:51:58;3.50;;;2.20;;
15230;SDS011;32569;51.762;8.564;2024-01-16T11:54:25;2.50;;;2.30;;
15230;SDS011;32569;51.762;8.564;2024-01-16T11:57:01;2.40;;;2.20;;
15230;SDS011;32569;51.762;8.564;2024-01-16T11:59:58;2.63;;;2.20;;
15230;SDS011;32569;51.762;8.564;2024-01-16T12:02:29;3.27;;;2.27;;
15230;SDS011;32569;51.762;8.564;2024-01-16T12:05:04;4.13;;;2.30;;
15230;SDS011;32569;51.762;8.564;2024-01-16T12:07:42;2.43;;;2.20;;
15230;SDS011;32569;51.762;8.564;2024-01-16T12:10:09;3.40;;;2.40;;
15230;SDS011;32569;51.762;8.564;2024-01-16T12:12:36;2.33;;;2.10;;
15230;SDS011;32569;51.762;8.564;2024-01-16T12:15:03;2.13;;;1.83;;
15230;SDS011;32569;51.762;8.564;2024-01-16T12:17:33;3.90;;;2.40;;
15230;SDS011;32569;51.762;8.564;2024-01-16T12:20:00;3.63;;;2.23;;
15230;SDS011;32569;51.762;8.564;2024-01-16T12:22:26;2.27;;;2.07;;
15230;SDS011;32569;51.762;8.564;2024-01-16T12:24:55;2.30;;;2.20;;
15230;SDS011;32569;51.762;8.564;2024-01-16T12:27:23;2.10;;;1.90;;
15230;SDS011;32569;51.762;8.564;2024-01-16T12:30:04;1.90;;;1.80;;
15230;SDS011;32569;51.762;8.564;2024-01-16T12:32:33;2.33;;;2.13;;
15230;SDS011;32569;51.762;8.564;2024-01-16T12:35:00;2.37;;;2.17;;
15230;SDS011;32569;51.762;8.564;2024-01-16T12:37:27;2.40;;;2.20;;
15230;SDS011;32569;51.762;8.564;2024-01-16T12:39:54;2.37;;;2.00;;
15230;SDS011;32569;51.762;8.564;2024-01-16T12:42:22;3.27;;;2.10;;
15230;SDS011;32569;51.762;8.564;2024-01-16T12:44:50;3.67;;;2.17;;
15230;SDS011;32569;51.762;8.564;2024-01-16T12:47:18;2.07;;;1.97;;
15230;SDS011;32569;51.762;8.564;2024-01-16T12:49:48;2.93;;;2.40;;
15230;SDS011;32569;51.762;8.564;2024-01-16T12:52:15;2.03;;;1.83;;
15230;SDS011;32569;51.762;8.564;2024-01-16T12:54:45;2.17;;;2.00;;
15230;SDS011;32569;51.762;8.564;2024-01-16T12:57:16;2.00;;;1.90;;
15230;SDS011;32569;51.762;8.564;2024-01-16T12:59:44;2.10;;;1.90;;
15230;SDS011;32569;51.762;8.564;2024-01-16T13:02:19;2.37;;;2.10;;
15230;SDS011;32569;51.762;8.564;2024-01-16T13:04:48;1.90;;;1.80;;
15230;SDS011;32569;51.762;8.564;2024-01-16T13:07:22;2.23;;;1.90;;
15230;SDS011;32569;51.762;8.564;2024-01-16T13:09:48;2.23;;;2.00;;
15230;SDS011;32569;51.762;8.564;2024-01-16T13:12:19;2.63;;;2.10;;
15230;SDS011;32569;51.762;8.564;2024-01-16T13:14:46;2.40;;;2.13;;
15230;SDS011;32569;51.762;8.564;2024-01-16T13:17:13;2.00;;;1.90;;
15230;SDS011;32569;51.762;8.564;2024-01-16T13:19:39;2.07;;;1.97;;
15230;SDS011;32569;51.762;8.564;2024-01-16T13:22:08;1.90;;;1.80;;
15230;SDS011;32569;51.762;8.564;2024-01-16T13:24:34;2.67;;;2.10;;
15230;SDS011;32569;51.762;8.564;2024-01-16T13:27:01;3.50;;;2.00;;
15230;SDS011;32569;51.762;8.564;2024-01-16T13:29:32;3.00;;;1.87;;
15230;SDS011;32569;51.762;8.564;2024-01-16T13:32:00;2.07;;;1.73;;
15230;SDS011;32569;51.762;8.564;2024-01-16T13:34:27;2.63;;;2.10;;
15230;SDS011;32569;51.762;8.564;2024-01-16T13:36:54;2.20;;;2.00;;
15230;SDS011;32569;51.762;8.564;2024-01-16T13:39:26;2.03;;;1.83;;
15230;SDS011;32569;51.762;8.564;2024-01-16T13:41:53;2.63;;;2.20;;
15230;SDS011;32569;51.762;8.564;2024-01-16T13:44:19;4.10;;;1.93;;
15230;SDS011;32569;51.762;8.564;2024-01-16T13:46:46;2.00;;;1.90;;
15230;SDS011;32569;51.762;8.564;2024-01-16T13:49:13;1.90;;;1.80;;
15230;SDS011;32569;51.762;8.564;2024-01-16T13:51:39;2.10;;;2.00;;
15230;SDS011;32569;51.762;8.564;2024-01-16T13:54:10;3.80;;;2.30;;
15230;SDS011;32569;51.762;8.564;2024-01-16T13:56:38;2.40;;;2.20;;
15230;SDS011;32569;51.762;8.564;2024-01-16T13:59:04;2.00;;;1.90;;
15230;SDS011;32569;51.762;8.564;2024-01-16T14:01:31;2.30;;;2.10;;
15230;SDS011;32569;51.762;8.564;2024-01-16T14:03:58;4.37;;;2.20;;
15230;SDS011;32569;51.762;8.564;2024-01-16T14:06:25;2.90;;;2.13;;
15230;SDS011;32569;51.762;8.564;2024-01-16T14:08:51;2.53;;;2.10;;
15230;SDS011;32569;51.762;8.564;2024-01-16T14:11:18;2.20;;;2.07;;
15230;SDS011;32569;51.762;8.564;2024-01-16T14:13:46;2.10;;;1.90;;
15230;SDS011;32569;51.762;8.564;2024-01-16T14:16:13;1.87;;;1.77;;
15230;SDS011;32569;51.762;8.564;2024-01-16T14:18:40;2.50;;;2.30;;
15230;SDS011;32569;51.762;8.564;2024-01-16T14:21:07;2.13;;;1.93;;
15230;SDS011;32569;51.762;8.564;2024-01-16T14:23:33;2.97;;;2.30;;
15230;SDS011;32569;51.762;8.564;2024-01-16T14:26:00;1.93;;;1.80;;
15230;SDS011;32569;51.762;8.564;2024-01-16T14:28:28;2.30;;;2.10;;
15230;SDS011;32569;51.762;8.564;2024-01-16T14:30:56;3.13;;;2.10;;
15230;SDS011;32569;51.762;8.564;2024-01-16T14:33:22;2.23;;;2.03;;
15230;SDS011;32569;51.762;8.564;2024-01-16T14:35:49;4.13;;;2.57;;
15230;SDS011;32569;51.762;8.564;2024-01-16T14:38:15;2.47;;;2.20;;
15230;SDS011;32569;51.762;8.564;2024-01-16T14:40:42;4.03;;;2.10;;
15230;SDS011;32569;51.762;8.564;2024-01-16T14:43:09;2.50;;;2.30;;
15230;SDS011;32569;51.762;8.564;2024-01-16T14:45:35;2.37;;;2.20;;
15230;SDS011;32569;51.762;8.564;2024-01-16T14:48:04;3.20;;;2.37;;
15230;SDS011;32569;51.762;8.564;2024-01-16T14:50:31;3.03;;;2.40;;
15230;SDS011;32569;51.762;8.564;2024-01-16T14:52:58;2.67;;;2.20;;